sensor_id;sensor_type;location;lat;lon;timestamp;pressure;altitude;pressure_sealevel;temperature;humidity
75247;BME280;63844;50.042;19.224;2023-01-04T00:02:04;100346.58;;;3.18;85.62
75247;BME280;63844;50.042;19.224;2023-01-04T00:04:30;100358.49;;;3.17;86.36
75247;BME280;63844;50.042;19.224;2023-01-04T00:06:57;100362.42;;;3.23;86.18
75247;BME280;63844;50.042;19.224;2023-01-04T00:09:23;100362.74;;;3.25;86.05
75247;BME280;63844;50.042;19.224;2023-01-04T00:11:49;100357.90;;;3.21;85.21
75247;BME280;63844;50.042;19.224;2023-01-04T00:14:16;100357.48;;;3.14;85.13
75247;BME280;63844;50.042;19.224;2023-01-04T00:16:44;100358.31;;;3.04;84.68
75247;BME280;63844;50.042;19.224;2023-01-04T00:19:11;100356.88;;;2.94;84.66
75247;BME280;63844;50.042;19.224;2023-01-04T00:21:38;100353.64;;;2.86;84.68
75247;BME280;63844;50.042;19.224;2023-01-04T00:24:05;100355.08;;;2.84;84.46
75247;BME280;63844;50.042;19.224;2023-01-04T00:26:32;100354.80;;;2.78;84.63
75247;BME280;63844;50.042;19.224;2023-01-04T00:29:02;100360.79;;;2.74;86.08
75247;BME280;63844;50.042;19.224;2023-01-04T00:31:29;100362.05;;;2.72;85.86
75247;BME280;63844;50.042;19.224;2023-01-04T00:33:58;100362.88;;;2.61;84.80
75247;BME280;63844;50.042;19.224;2023-01-04T00:36:26;100361.23;;;2.51;85.55
75247;BME280;63844;50.042;19.224;2023-01-04T00:38:53;100351.34;;;2.45;84.96
75247;BME280;63844;50.042;19.224;2023-01-04T00:41:47;100350.63;;;2.30;84.42
75247;BME280;63844;50.042;19.224;2023-01-04T00:44:15;100354.09;;;2.17;84.40
75247;BME280;63844;50.042;19.224;2023-01-04T00:46:43;100355.46;;;2.00;84.91
75247;BME280;63844;50.042;19.224;2023-01-04T00:49:10;100355.73;;;1.90;84.60
75247;BME280;63844;50.042;19.224;2023-01-04T00:51:38;100351.81;;;1.79;85.30
75247;BME280;63844;50.042;19.224;2023-01-04T00:54:07;100350.98;;;1.75;84.60
75247;BME280;63844;50.042;19.224;2023-01-04T00:56:36;100351.02;;;1.71;84.34
75247;BME280;63844;50.042;19.224;2023-01-04T00:59:03;100346.17;;;1.64;84.12
75247;BME280;63844;50.042;19.224;2023-01-04T01:01:31;100344.48;;;1.56;84.43
75247;BME280;63844;50.042;19.224;2023-01-04T01:04:00;100349.08;;;1.48;84.31
75247;BME280;63844;50.042;19.224;2023-01-04T01:06:29;100352.11;;;1.39;84.70
75247;BME280;63844;50.042;19.224;2023-01-04T01:08:57;100351.27;;;1.37;84.22
75247;BME280;63844;50.042;19.224;2023-01-04T01:11:23;100347.11;;;1.31;83.79
75247;BME280;63844;50.042;19.224;2023-01-04T01:13:50;100348.73;;;1.21;84.03
75247;BME280;63844;50.042;19.224;2023-01-04T01:16:20;100350.55;;;1.11;83.81
75247;BME280;63844;50.042;19.224;2023-01-04T01:18:48;100355.81;;;1.03;84.17
75247;BME280;63844;50.042;19.224;2023-01-04T01:21:17;100361.27;;;0.91;84.82
75247;BME280;63844;50.042;19.224;2023-01-04T01:23:44;100358.34;;;0.88;84.92
75247;BME280;63844;50.042;19.224;2023-01-04T01:26:12;100367.27;;;0.76;85.67
75247;BME280;63844;50.042;19.224;2023-01-04T01:28:39;100371.53;;;0.52;86.37
75247;BME280;63844;50.042;19.224;2023-01-04T01:31:08;100374.02;;;0.40;86.57
75247;BME280;63844;50.042;19.224;2023-01-04T01:33:40;100368.27;;;0.36;87.78
75247;BME280;63844;50.042;19.224;2023-01-04T01:36:07;100364.45;;;0.33;87.59
75247;BME280;63844;50.042;19.224;2023-01-04T01:38:35;100359.58;;;0.30;85.46
75247;BME280;63844;50.042;19.224;2023-01-04T01:41:03;100361.33;;;0.25;85.21
75247;BME280;63844;50.042;19.224;2023-01-04T01:43:53;100369.52;;;0.25;85.89
75247;BME280;63844;50.042;19.224;2023-01-04T01:46:42;100375.10;;;0.10;88.83
75247;BME280;63844;50.042;19.224;2023-01-04T01:49:24;100371.27;;;0.10;89.79
75247;BME280;63844;50.042;19.224;2023-01-04T01:51:55;100366.39;;;0.12;90.74
75247;BME280;63844;50.042;19.224;2023-01-04T01:54:32;100366.40;;;0.16;90.22
75247;BME280;63844;50.042;19.224;2023-01-04T01:57:01;100372.48;;;0.18;86.79
75247;BME280;63844;50.042;19.224;2023-01-04T01:59:31;100370.22;;;0.16;88.65
75247;BME280;63844;50.042;19.224;2023-01-04T02:01:59;100366.74;;;0.15;88.55
75247;BME280;63844;50.042;19.224;2023-01-04T02:04:26;100364.64;;;0.18;87.48
75247;BME280;63844;50.042;19.224;2023-01-04T02:06:55;100360.12;;;0.18;86.73
75247;BME280;63844;50.042;19.224;2023-01-04T02:09:22;100361.69;;;0.19;87.50
75247;BME280;63844;50.042;19.224;2023-01-04T02:11:49;100367.80;;;-0.03;89.90
75247;BME280;63844;50.042;19.224;2023-01-04T02:14:17;100365.91;;;-0.11;90.56
75247;BME280;63844;50.042;19.224;2023-01-04T02:19:54;100360.31;;;-0.03;87.61
75247;BME280;63844;50.042;19.224;2023-01-04T02:23:07;100366.41;;;-0.20;89.61
75247;BME280;63844;50.042;19.224;2023-01-04T02:34:04;100351.98;;;-0.23;87.06
75247;BME280;63844;50.042;19.224;2023-01-04T02:39:48;100341.38;;;-0.32;87.18
75247;BME280;63844;50.042;19.224;2023-01-04T02:42:39;100337.02;;;-0.37;87.19
75247;BME280;63844;50.042;19.224;2023-01-04T02:45:30;100333.89;;;-0.40;87.15
75247;BME280;63844;50.042;19.224;2023-01-04T02:48:03;100329.37;;;-0.37;86.62
75247;BME280;63844;50.042;19.224;2023-01-04T02:50:56;100332.52;;;-0.36;86.66
75247;BME280;63844;50.042;19.224;2023-01-04T02:53:28;100329.55;;;-0.34;86.36
75247;BME280;63844;50.042;19.224;2023-01-04T02:56:13;100330.59;;;-0.35;86.69
75247;BME280;63844;50.042;19.224;2023-01-04T02:58:53;100325.71;;;-0.35;87.08
75247;BME280;63844;50.042;19.224;2023-01-04T03:01:40;100323.80;;;-0.33;86.36
75247;BME280;63844;50.042;19.224;2023-01-04T03:04:59;100321.02;;;-0.39;86.46
75247;BME280;63844;50.042;19.224;2023-01-04T03:07:53;100313.89;;;-0.40;86.98
75247;BME280;63844;50.042;19.224;2023-01-04T03:10:42;100309.02;;;-0.36;86.45
75247;BME280;63844;50.042;19.224;2023-01-04T03:13:18;100310.59;;;-0.39;86.30
75247;BME280;63844;50.042;19.224;2023-01-04T03:16:06;100310.25;;;-0.42;86.60
75247;BME280;63844;50.042;19.224;2023-01-04T03:18:41;100311.12;;;-0.47;86.30
75247;BME280;63844;50.042;19.224;2023-01-04T03:21:10;100309.02;;;-0.54;86.45
75247;BME280;63844;50.042;19.224;2023-01-04T03:23:38;100313.02;;;-0.57;86.45
75247;BME280;63844;50.042;19.224;2023-01-04T03:26:28;100309.71;;;-0.62;87.10
75247;BME280;63844;50.042;19.224;2023-01-04T03:32:43;100304.67;;;-0.60;86.38
75247;BME280;63844;50.042;19.224;2023-01-04T03:35:40;100300.31;;;-0.65;86.78
75247;BME280;63844;50.042;19.224;2023-01-04T03:38:17;100295.63;;;-0.66;86.47
75247;BME280;63844;50.042;19.224;2023-01-04T03:41:18;100292.16;;;-0.71;86.41
75247;BME280;63844;50.042;19.224;2023-01-04T03:44:53;100295.11;;;-0.72;86.44
75247;BME280;63844;50.042;19.224;2023-01-04T03:50:48;100296.67;;;-0.74;86.73
75247;BME280;63844;50.042;19.224;2023-01-04T03:53:16;100289.19;;;-0.73;86.40
75247;BME280;63844;50.042;19.224;2023-01-04T03:55:44;100284.84;;;-0.72;86.36
75247;BME280;63844;50.042;19.224;2023-01-04T03:58:12;100282.41;;;-0.69;86.25
75247;BME280;63844;50.042;19.224;2023-01-04T04:00:38;100281.38;;;-0.67;86.15
75247;BME280;63844;50.042;19.224;2023-01-04T04:03:06;100280.67;;;-0.63;86.12
75247;BME280;63844;50.042;19.224;2023-01-04T04:05:41;100276.34;;;-0.60;86.18
75247;BME280;63844;50.042;19.224;2023-01-04T04:08:28;100267.30;;;-0.56;86.35
75247;BME280;63844;50.042;19.224;2023-01-04T04:10:58;100262.08;;;-0.55;86.41
75247;BME280;63844;50.042;19.224;2023-01-04T04:13:46;100265.38;;;-0.55;86.40
75247;BME280;63844;50.042;19.224;2023-01-04T04:16:13;100258.08;;;-0.54;86.47
75247;BME280;63844;50.042;19.224;2023-01-04T04:18:39;100250.77;;;-0.52;86.88
75247;BME280;63844;50.042;19.224;2023-01-04T04:21:05;100247.48;;;-0.48;88.00
75247;BME280;63844;50.042;19.224;2023-01-04T04:23:32;100249.36;;;-0.44;88.41
75247;BME280;63844;50.042;19.224;2023-01-04T04:25:58;100251.27;;;-0.38;87.49
75247;BME280;63844;50.042;19.224;2023-01-04T04:28:25;100255.63;;;-0.36;86.79
75247;BME280;63844;50.042;19.224;2023-01-04T04:30:51;100257.37;;;-0.35;86.57
75247;BME280;63844;50.042;19.224;2023-01-04T04:33:18;100262.59;;;-0.39;86.76
75247;BME280;63844;50.042;19.224;2023-01-04T04:35:49;100261.55;;;-0.43;86.59
75247;BME280;63844;50.042;19.224;2023-01-04T04:38:15;100257.19;;;-0.43;86.76
75247;BME280;63844;50.042;19.224;2023-01-04T04:40:41;100256.33;;;-0.43;86.55
75247;BME280;63844;50.042;19.224;2023-01-04T04:43:26;100255.81;;;-0.51;86.63
75247;BME280;63844;50.042;19.224;2023-01-04T04:45:53;100259.47;;;-0.59;86.67
75247;BME280;63844;50.042;19.224;2023-01-04T04:48:19;100255.81;;;-0.67;86.63
75247;BME280;63844;50.042;19.224;2023-01-04T04:50:45;100246.27;;;-0.76;86.61
75247;BME280;63844;50.042;19.224;2023-01-04T04:53:12;100240.17;;;-0.82;86.34
75247;BME280;63844;50.042;19.224;2023-01-04T04:55:38;100228.88;;;-0.87;86.18
75247;BME280;63844;50.042;19.224;2023-01-04T04:58:05;100225.58;;;-0.93;85.81
75247;BME280;63844;50.042;19.224;2023-01-04T05:00:31;100225.58;;;-0.98;85.32
75247;BME280;63844;50.042;19.224;2023-01-04T05:02:58;100222.27;;;-1.05;84.85
75247;BME280;63844;50.042;19.224;2023-01-04T05:05:26;100220.35;;;-1.07;85.48
75247;BME280;63844;50.042;19.224;2023-01-04T05:07:52;100216.52;;;-1.20;85.24
75247;BME280;63844;50.042;19.224;2023-01-04T05:10:19;100214.59;;;-1.25;85.72
75247;BME280;63844;50.042;19.224;2023-01-04T05:12:45;100216.82;;;-1.41;85.51
75247;BME280;63844;50.042;19.224;2023-01-04T05:15:36;100219.70;;;-1.65;85.42
75247;BME280;63844;50.042;19.224;2023-01-04T05:18:04;100216.20;;;-1.77;85.62
75247;BME280;63844;50.042;19.224;2023-01-04T05:20:31;100208.85;;;-1.93;85.89
75247;BME280;63844;50.042;19.224;2023-01-04T05:22:58;100203.10;;;-1.98;86.15
75247;BME280;63844;50.042;19.224;2023-01-04T05:25:24;100200.88;;;-1.92;86.02
75247;BME280;63844;50.042;19.224;2023-01-04T05:27:51;100196.36;;;-1.92;85.90
75247;BME280;63844;50.042;19.224;2023-01-04T05:30:18;100200.70;;;-1.90;85.83
75247;BME280;63844;50.042;19.224;2023-01-04T05:33:05;100200.36;;;-1.91;85.78
75247;BME280;63844;50.042;19.224;2023-01-04T05:35:32;100207.46;;;-1.94;85.74
75247;BME280;63844;50.042;19.224;2023-01-04T05:37:58;100205.04;;;-1.91;85.59
75247;BME280;63844;50.042;19.224;2023-01-04T05:40:25;100198.60;;;-1.96;85.69
75247;BME280;63844;50.042;19.224;2023-01-04T05:42:51;100200.48;;;-2.02;85.91
75247;BME280;63844;50.042;19.224;2023-01-04T05:45:18;100198.54;;;-2.11;86.37
75247;BME280;63844;50.042;19.224;2023-01-04T05:47:52;100195.59;;;-2.10;86.42
75247;BME280;63844;50.042;19.224;2023-01-04T05:50:20;100191.94;;;-2.11;86.54
75247;BME280;63844;50.042;19.224;2023-01-04T05:52:47;100189.68;;;-2.12;86.62
75247;BME280;63844;50.042;19.224;2023-01-04T05:55:14;100199.75;;;-2.10;86.10
75247;BME280;63844;50.042;19.224;2023-01-04T05:57:41;100196.09;;;-2.14;86.63
75247;BME280;63844;50.042;19.224;2023-01-04T06:00:10;100194.20;;;-2.12;86.62
75247;BME280;63844;50.042;19.224;2023-01-04T06:02:36;100192.12;;;-2.11;85.86
75247;BME280;63844;50.042;19.224;2023-01-04T06:05:04;100197.63;;;-2.17;86.21
75247;BME280;63844;50.042;19.224;2023-01-04T06:07:30;100194.70;;;-2.17;85.92
75247;BME280;63844;50.042;19.224;2023-01-04T06:09:57;100192.60;;;-2.19;86.38
75247;BME280;63844;50.042;19.224;2023-01-04T06:12:24;100194.33;;;-2.20;86.20
75247;BME280;63844;50.042;19.224;2023-01-04T06:14:50;100191.20;;;-2.23;86.31
75247;BME280;63844;50.042;19.224;2023-01-04T06:17:17;100186.31;;;-2.27;86.75
75247;BME280;63844;50.042;19.224;2023-01-04T06:19:43;100183.20;;;-2.25;86.56
75247;BME280;63844;50.042;19.224;2023-01-04T06:22:10;100180.75;;;-2.30;86.44
75247;BME280;63844;50.042;19.224;2023-01-04T06:24:36;100176.42;;;-2.31;86.03
75247;BME280;63844;50.042;19.224;2023-01-04T06:27:03;100171.20;;;-2.35;85.90
75247;BME280;63844;50.042;19.224;2023-01-04T06:29:29;100177.41;;;-2.38;85.97
75247;BME280;63844;50.042;19.224;2023-01-04T06:31:56;100178.61;;;-2.41;85.71
75247;BME280;63844;50.042;19.224;2023-01-04T06:34:22;100178.77;;;-2.45;85.87
75247;BME280;63844;50.042;19.224;2023-01-04T06:36:49;100180.29;;;-2.51;85.65
75247;BME280;63844;50.042;19.224;2023-01-04T06:39:15;100181.45;;;-2.60;85.98
75247;BME280;63844;50.042;19.224;2023-01-04T06:41:41;100170.34;;;-2.63;86.29
75247;BME280;63844;50.042;19.224;2023-01-04T06:44:08;100167.36;;;-2.66;86.51
75247;BME280;63844;50.042;19.224;2023-01-04T06:46:34;100169.64;;;-2.64;86.35
75247;BME280;63844;50.042;19.224;2023-01-04T06:49:01;100174.30;;;-2.65;87.00
75247;BME280;63844;50.042;19.224;2023-01-04T06:51:28;100174.80;;;-2.68;86.60
75247;BME280;63844;50.042;19.224;2023-01-04T06:53:54;100180.66;;;-2.73;86.17
75247;BME280;63844;50.042;19.224;2023-01-04T06:56:21;100182.85;;;-2.82;86.72
75247;BME280;63844;50.042;19.224;2023-01-04T06:58:47;100181.44;;;-2.86;87.06
75247;BME280;63844;50.042;19.224;2023-01-04T07:01:13;100182.51;;;-2.84;86.27
75247;BME280;63844;50.042;19.224;2023-01-04T07:03:40;100177.95;;;-2.90;86.34
75247;BME280;63844;50.042;19.224;2023-01-04T07:06:07;100175.84;;;-2.94;86.32
75247;BME280;63844;50.042;19.224;2023-01-04T07:08:34;100174.79;;;-2.95;86.17
75247;BME280;63844;50.042;19.224;2023-01-04T07:11:01;100173.05;;;-2.96;86.75
75247;BME280;63844;50.042;19.224;2023-01-04T07:13:28;100171.18;;;-2.91;86.49
75247;BME280;63844;50.042;19.224;2023-01-04T07:15:54;100168.45;;;-2.87;85.75
75247;BME280;63844;50.042;19.224;2023-01-04T07:18:21;100160.50;;;-2.83;85.88
75247;BME280;63844;50.042;19.224;2023-01-04T07:20:47;100158.80;;;-2.77;86.39
75247;BME280;63844;50.042;19.224;2023-01-04T07:23:14;100154.85;;;-2.73;85.87
75247;BME280;63844;50.042;19.224;2023-01-04T07:25:40;100149.50;;;-2.71;85.97
75247;BME280;63844;50.042;19.224;2023-01-04T07:28:07;100147.96;;;-2.65;86.14
75247;BME280;63844;50.042;19.224;2023-01-04T07:30:34;100148.01;;;-2.58;86.20
75247;BME280;63844;50.042;19.224;2023-01-04T07:33:00;100151.19;;;-2.50;85.91
75247;BME280;63844;50.042;19.224;2023-01-04T07:35:27;100148.27;;;-2.45;86.29
75247;BME280;63844;50.042;19.224;2023-01-04T07:37:53;100150.38;;;-2.37;86.14
75247;BME280;63844;50.042;19.224;2023-01-04T07:40:20;100149.88;;;-2.34;86.04
75247;BME280;63844;50.042;19.224;2023-01-04T07:42:54;100149.90;;;-2.28;85.42
75247;BME280;63844;50.042;19.224;2023-01-04T07:45:22;100147.47;;;-2.27;85.40
75247;BME280;63844;50.042;19.224;2023-01-04T07:47:48;100147.30;;;-2.26;85.34
75247;BME280;63844;50.042;19.224;2023-01-04T07:50:15;100142.98;;;-2.26;85.41
75247;BME280;63844;50.042;19.224;2023-01-04T07:52:41;100148.02;;;-2.20;85.38
75247;BME280;63844;50.042;19.224;2023-01-04T07:55:08;100146.98;;;-2.22;85.36
75247;BME280;63844;50.042;19.224;2023-01-04T07:57:35;100141.42;;;-2.20;86.66
75247;BME280;63844;50.042;19.224;2023-01-04T08:00:01;100137.13;;;-2.13;85.82
75247;BME280;63844;50.042;19.224;2023-01-04T08:02:29;100135.91;;;-2.15;85.62
75247;BME280;63844;50.042;19.224;2023-01-04T08:04:55;100134.70;;;-2.12;85.60
75247;BME280;63844;50.042;19.224;2023-01-04T08:07:22;100138.70;;;-2.09;85.86
75247;BME280;63844;50.042;19.224;2023-01-04T08:09:48;100139.06;;;-2.07;85.84
75247;BME280;63844;50.042;19.224;2023-01-04T08:12:14;100134.22;;;-2.01;85.93
75247;BME280;63844;50.042;19.224;2023-01-04T08:14:41;100133.70;;;-1.99;85.88
75247;BME280;63844;50.042;19.224;2023-01-04T08:17:08;100127.31;;;-1.92;85.84
75247;BME280;63844;50.042;19.224;2023-01-04T08:19:35;100120.91;;;-1.87;86.50
75247;BME280;63844;50.042;19.224;2023-01-04T08:22:01;100115.54;;;-1.83;86.13
75247;BME280;63844;50.042;19.224;2023-01-04T08:24:28;100114.86;;;-1.78;85.87
75247;BME280;63844;50.042;19.224;2023-01-04T08:26:54;100113.81;;;-1.72;85.87
75247;BME280;63844;50.042;19.224;2023-01-04T08:29:20;100113.65;;;-1.66;86.03
75247;BME280;63844;50.042;19.224;2023-01-04T08:31:47;100112.80;;;-1.62;87.46
75247;BME280;63844;50.042;19.224;2023-01-04T08:34:13;100107.94;;;-1.59;86.68
75247;BME280;63844;50.042;19.224;2023-01-04T08:36:48;100109.52;;;-1.55;87.92
75247;BME280;63844;50.042;19.224;2023-01-04T08:39:15;100113.33;;;-1.51;88.11
75247;BME280;63844;50.042;19.224;2023-01-04T08:41:42;100107.61;;;-1.47;88.08
75247;BME280;63844;50.042;19.224;2023-01-04T08:44:23;100107.95;;;-1.42;87.31
75247;BME280;63844;50.042;19.224;2023-01-04T08:46:52;100104.83;;;-1.37;86.86
75247;BME280;63844;50.042;19.224;2023-01-04T08:49:20;100098.58;;;-1.30;88.07
75247;BME280;63844;50.042;19.224;2023-01-04T08:51:47;100106.05;;;-1.23;87.82
75247;BME280;63844;50.042;19.224;2023-01-04T08:54:14;100102.75;;;-1.20;88.19
75247;BME280;63844;50.042;19.224;2023-01-04T08:56:41;100104.48;;;-1.15;88.42
75247;BME280;63844;50.042;19.224;2023-01-04T08:59:09;100094.40;;;-1.06;88.68
75247;BME280;63844;50.042;19.224;2023-01-04T09:01:36;100091.25;;;-0.97;87.27
75247;BME280;63844;50.042;19.224;2023-01-04T09:04:04;100086.03;;;-0.86;88.67
75247;BME280;63844;50.042;19.224;2023-01-04T09:06:30;100083.23;;;-0.75;87.44
75247;BME280;63844;50.042;19.224;2023-01-04T09:08:57;100080.23;;;-0.65;88.76
75247;BME280;63844;50.042;19.224;2023-01-04T09:11:24;100079.69;;;-0.57;88.76
75247;BME280;63844;50.042;19.224;2023-01-04T09:13:56;100073.23;;;-0.50;88.75
75247;BME280;63844;50.042;19.224;2023-01-04T09:16:23;100069.02;;;-0.42;87.26
75247;BME280;63844;50.042;19.224;2023-01-04T09:18:50;100066.20;;;-0.33;87.55
75247;BME280;63844;50.042;19.224;2023-01-04T09:21:19;100063.71;;;-0.22;87.26
75247;BME280;63844;50.042;19.224;2023-01-04T09:23:46;100059.13;;;-0.10;86.93
75247;BME280;63844;50.042;19.224;2023-01-04T09:26:21;100061.67;;;0.01;87.57
75247;BME280;63844;50.042;19.224;2023-01-04T09:28:49;100060.20;;;0.12;87.38
75247;BME280;63844;50.042;19.224;2023-01-04T09:31:19;100061.18;;;0.24;86.60
75247;BME280;63844;50.042;19.224;2023-01-04T09:33:46;100058.67;;;0.35;86.51
75247;BME280;63844;50.042;19.224;2023-01-04T09:36:14;100056.67;;;0.43;86.68
75247;BME280;63844;50.042;19.224;2023-01-04T09:38:42;100058.17;;;0.53;86.88
75247;BME280;63844;50.042;19.224;2023-01-04T09:46:31;100029.71;;;0.80;86.42
75247;BME280;63844;50.042;19.224;2023-01-04T09:49:19;100022.64;;;0.90;86.91
75247;BME280;63844;50.042;19.224;2023-01-04T09:52:14;100016.23;;;1.02;87.66
75247;BME280;63844;50.042;19.224;2023-01-04T09:54:51;100012.95;;;1.16;87.44
75247;BME280;63844;50.042;19.224;2023-01-04T09:57:28;100010.91;;;1.26;87.76
75247;BME280;63844;50.042;19.224;2023-01-04T10:00:00;99995.61;;;1.36;87.62
75247;BME280;63844;50.042;19.224;2023-01-04T10:02:37;99982.23;;;1.46;86.88
75247;BME280;63844;50.042;19.224;2023-01-04T10:05:05;99971.26;;;1.59;86.51
75247;BME280;63844;50.042;19.224;2023-01-04T10:07:33;99963.91;;;1.72;86.21
75247;BME280;63844;50.042;19.224;2023-01-04T10:10:00;99957.75;;;1.88;85.24
75247;BME280;63844;50.042;19.224;2023-01-04T10:15:21;99935.26;;;2.18;84.58
75247;BME280;63844;50.042;19.224;2023-01-04T10:24:01;99916.92;;;2.66;83.72
75247;BME280;63844;50.042;19.224;2023-01-04T10:26:48;99913.46;;;2.83;82.61
75247;BME280;63844;50.042;19.224;2023-01-04T10:29:39;99907.73;;;2.99;82.56
75247;BME280;63844;50.042;19.224;2023-01-04T10:32:15;99906.16;;;3.15;82.39
75247;BME280;63844;50.042;19.224;2023-01-04T10:34:45;99905.61;;;3.32;82.02
75247;BME280;63844;50.042;19.224;2023-01-04T10:37:19;99900.04;;;3.47;80.98
75247;BME280;63844;50.042;19.224;2023-01-04T10:39:52;99896.57;;;3.61;80.95
75247;BME280;63844;50.042;19.224;2023-01-04T10:42:25;99891.32;;;3.76;80.96
75247;BME280;63844;50.042;19.224;2023-01-04T10:45:19;99884.88;;;3.89;79.57
75247;BME280;63844;50.042;19.224;2023-01-04T10:47:55;99880.58;;;4.07;79.29
75247;BME280;63844;50.042;19.224;2023-01-04T10:50:42;99875.00;;;4.20;78.84
75247;BME280;63844;50.042;19.224;2023-01-04T10:53:44;99868.85;;;4.34;79.38
75247;BME280;63844;50.042;19.224;2023-01-04T10:56:14;99867.19;;;4.50;77.62
75247;BME280;63844;50.042;19.224;2023-01-04T11:01:43;99842.45;;;4.82;78.54
75247;BME280;63844;50.042;19.224;2023-01-04T11:04:24;99838.34;;;4.97;78.20
75247;BME280;63844;50.042;19.224;2023-01-04T11:06:56;99830.14;;;5.13;76.76
75247;BME280;63844;50.042;19.224;2023-01-04T11:09:29;99819.52;;;5.27;76.92
75247;BME280;63844;50.042;19.224;2023-01-04T11:11:58;99811.25;;;5.39;76.61
75247;BME280;63844;50.042;19.224;2023-01-04T11:14:25;99804.23;;;5.50;75.12
75247;BME280;63844;50.042;19.224;2023-01-04T11:16:59;99793.87;;;5.61;74.41
75247;BME280;63844;50.042;19.224;2023-01-04T11:19:27;99792.90;;;5.74;75.12
75247;BME280;63844;50.042;19.224;2023-01-04T11:22:03;99794.20;;;5.88;74.24
75247;BME280;63844;50.042;19.224;2023-01-04T11:24:31;99791.73;;;5.99;74.71
75247;BME280;63844;50.042;19.224;2023-01-04T11:27:12;99787.77;;;6.07;73.39
75247;BME280;63844;50.042;19.224;2023-01-04T11:29:55;99783.69;;;6.13;73.86
75247;BME280;63844;50.042;19.224;2023-01-04T11:32:34;99772.27;;;6.18;73.32
75247;BME280;63844;50.042;19.224;2023-01-04T11:35:05;99760.88;;;6.22;73.47
75247;BME280;63844;50.042;19.224;2023-01-04T11:37:37;99758.27;;;6.22;71.26
75247;BME280;63844;50.042;19.224;2023-01-04T11:40:18;99756.58;;;6.25;71.18
75247;BME280;63844;50.042;19.224;2023-01-04T11:42:47;99749.73;;;6.29;71.74
75247;BME280;63844;50.042;19.224;2023-01-04T11:45:25;99741.11;;;6.34;71.40
75247;BME280;63844;50.042;19.224;2023-01-04T11:47:57;99737.38;;;6.40;71.88
75247;BME280;63844;50.042;19.224;2023-01-04T11:50:33;99730.33;;;6.45;71.73
75247;BME280;63844;50.042;19.224;2023-01-04T11:53:00;99720.05;;;6.51;72.75
75247;BME280;63844;50.042;19.224;2023-01-04T11:55:30;99708.35;;;6.54;71.30
75247;BME280;63844;50.042;19.224;2023-01-04T11:58:11;99698.04;;;6.62;72.11
75247;BME280;63844;50.042;19.224;2023-01-04T12:00:49;99686.76;;;6.71;70.91
75247;BME280;63844;50.042;19.224;2023-01-04T12:03:36;99684.59;;;6.82;70.03
75247;BME280;63844;50.042;19.224;2023-01-04T12:06:11;99680.83;;;6.92;69.11
75247;BME280;63844;50.042;19.224;2023-01-04T12:08:40;99674.27;;;7.02;68.98
75247;BME280;63844;50.042;19.224;2023-01-04T12:11:17;99660.55;;;7.10;67.85
75247;BME280;63844;50.042;19.224;2023-01-04T12:13:45;99651.52;;;7.17;67.23
75247;BME280;63844;50.042;19.224;2023-01-04T12:16:20;99653.29;;;7.20;66.35
75247;BME280;63844;50.042;19.224;2023-01-04T12:18:48;99649.85;;;7.27;68.43
75247;BME280;63844;50.042;19.224;2023-01-04T12:21:18;99650.06;;;7.30;66.86
75247;BME280;63844;50.042;19.224;2023-01-04T12:23:46;99648.41;;;7.27;65.55
75247;BME280;63844;50.042;19.224;2023-01-04T12:26:13;99642.71;;;7.29;66.44
75247;BME280;63844;50.042;19.224;2023-01-04T12:28:44;99646.99;;;7.27;65.32
75247;BME280;63844;50.042;19.224;2023-01-04T12:50:01;99618.27;;;7.12;65.60
75247;BME280;63844;50.042;19.224;2023-01-04T12:54:59;99609.25;;;7.09;66.95
75247;BME280;63844;50.042;19.224;2023-01-04T12:57:33;99601.70;;;7.04;65.83
75247;BME280;63844;50.042;19.224;2023-01-04T13:02:35;99588.88;;;7.03;65.82
75247;BME280;63844;50.042;19.224;2023-01-04T13:07:50;99567.54;;;7.04;64.52
75247;BME280;63844;50.042;19.224;2023-01-04T13:10:19;99561.52;;;7.05;65.32
75247;BME280;63844;50.042;19.224;2023-01-04T13:16:16;99545.11;;;7.02;64.55
75247;BME280;63844;50.042;19.224;2023-01-04T13:21:19;99527.82;;;7.03;64.19
75247;BME280;63844;50.042;19.224;2023-01-04T13:23:52;99518.60;;;7.04;64.65
75247;BME280;63844;50.042;19.224;2023-01-04T13:26:41;99512.62;;;7.08;64.11
75247;BME280;63844;50.042;19.224;2023-01-04T13:34:26;99502.64;;;7.07;64.14
75247;BME280;63844;50.042;19.224;2023-01-04T13:36:59;99497.30;;;7.09;63.84
75247;BME280;63844;50.042;19.224;2023-01-04T13:39:27;99495.20;;;7.16;63.68
75247;BME280;63844;50.042;19.224;2023-01-04T13:41:55;99494.82;;;7.21;63.17
75247;BME280;63844;50.042;19.224;2023-01-04T13:47:16;99497.57;;;7.30;62.77
75247;BME280;63844;50.042;19.224;2023-01-04T13:49:43;99497.39;;;7.38;62.75
75247;BME280;63844;50.042;19.224;2023-01-04T13:52:19;99494.24;;;7.37;62.68
75247;BME280;63844;50.042;19.224;2023-01-04T13:54:46;99486.61;;;7.31;62.29
75247;BME280;63844;50.042;19.224;2023-01-04T13:57:15;99478.15;;;7.27;62.50
75247;BME280;63844;50.042;19.224;2023-01-04T13:59:47;99486.52;;;7.25;62.57
75247;BME280;63844;50.042;19.224;2023-01-04T14:02:19;99471.46;;;7.19;62.27
75247;BME280;63844;50.042;19.224;2023-01-04T14:04:48;99457.79;;;7.18;62.80
75247;BME280;63844;50.042;19.224;2023-01-04T14:07:20;99442.59;;;7.15;62.99
75247;BME280;63844;50.042;19.224;2023-01-04T14:09:50;99444.70;;;7.08;63.04
75247;BME280;63844;50.042;19.224;2023-01-04T14:12:22;99451.34;;;7.05;63.11
75247;BME280;63844;50.042;19.224;2023-01-04T14:17:52;99452.33;;;7.03;63.21
75247;BME280;63844;50.042;19.224;2023-01-04T14:22:55;99441.41;;;6.98;63.60
75247;BME280;63844;50.042;19.224;2023-01-04T14:25:36;99433.30;;;6.99;64.01
75247;BME280;63844;50.042;19.224;2023-01-04T14:30:52;99433.90;;;6.97;64.17
75247;BME280;63844;50.042;19.224;2023-01-04T14:33:23;99430.75;;;6.93;64.34
75247;BME280;63844;50.042;19.224;2023-01-04T14:36:17;99428.39;;;6.90;64.32
75247;BME280;63844;50.042;19.224;2023-01-04T14:38:44;99419.19;;;6.88;64.56